createdAt,value
2018-04-06T00:00:00.160Z,9.20
2018-04-06T00:01:00.341Z,8.60
2018-04-06T00:02:00.521Z,8.80
2018-04-06T00:03:00.707Z,6.50
2018-04-06T00:04:00.884Z,7.70
2018-04-06T00:05:01.065Z,6.90
2018-04-06T00:06:01.244Z,7.80
2018-04-06T00:07:01.428Z,6.20
2018-04-06T00:08:01.610Z,6.70
2018-04-06T00:09:01.792Z,5.60
2018-04-06T00:10:01.972Z,6.90
2018-04-06T00:11:02.156Z,9.30
2018-04-06T00:12:02.337Z,8.20
2018-04-06T00:13:02.518Z,8.80
2018-04-06T00:14:02.700Z,8.80
2018-04-06T00:15:02.881Z,7.30
2018-04-06T00:16:03.064Z,7.80
2018-04-06T00:17:03.245Z,9.80
2018-04-06T00:18:03.424Z,7.20
2018-04-06T00:19:03.606Z,7.30
2018-04-06T00:20:03.789Z,7.30
2018-04-06T00:21:03.971Z,6.50
2018-04-06T00:22:04.154Z,9.50
2018-04-06T00:23:04.333Z,8.80
2018-04-06T00:24:04.517Z,7.00
2018-04-06T00:25:04.694Z,5.40
2018-04-06T00:26:04.875Z,7.10
2018-04-06T00:27:05.057Z,8.30
2018-04-06T00:28:05.237Z,6.90
2018-04-06T00:29:05.419Z,6.90
2018-04-06T00:30:05.598Z,7.50
2018-04-06T00:31:05.965Z,7.90
2018-04-06T00:32:06.026Z,10.80
2018-04-06T00:33:06.202Z,9.30
2018-04-06T00:34:06.392Z,8.40
2018-04-06T00:35:06.563Z,10.10
2018-04-06T00:36:06.744Z,9.20
2018-04-06T00:37:06.927Z,10.60
2018-04-06T00:38:07.109Z,9.00
2018-04-06T00:39:07.290Z,6.90
2018-04-06T00:40:07.469Z,9.50
2018-04-06T00:41:07.651Z,8.00
2018-04-06T00:42:07.832Z,9.20
2018-04-06T00:43:08.011Z,6.00
2018-04-06T00:44:08.193Z,8.00
2018-04-06T00:45:08.377Z,11.30
2018-04-06T00:46:08.552Z,11.00
2018-04-06T00:47:08.735Z,9.10
2018-04-06T00:48:08.914Z,11.00
2018-04-06T00:49:09.094Z,7.80
2018-04-06T00:50:09.275Z,7.70
2018-04-06T00:51:09.457Z,10.50
2018-04-06T00:52:09.638Z,10.10
2018-04-06T00:53:09.818Z,8.30
2018-04-06T00:54:09.998Z,14.50
2018-04-06T00:55:10.178Z,10.40
2018-04-06T00:56:10.359Z,8.70
2018-04-06T00:57:10.540Z,9.80
2018-04-06T00:58:10.721Z,9.10
2018-04-06T00:59:10.902Z,11.10
2018-04-06T01:00:11.080Z,12.00
2018-04-06T01:01:11.263Z,11.90
2018-04-06T01:02:11.442Z,10.30
2018-04-06T01:03:11.624Z,12.20
2018-04-06T01:04:11.806Z,14.40
2018-04-06T01:05:11.986Z,10.10
2018-04-06T01:06:12.165Z,13.20
2018-04-06T01:07:12.345Z,13.90
2018-04-06T01:08:12.528Z,10.40
2018-04-06T01:09:12.708Z,13.50
2018-04-06T01:10:12.889Z,10.90
2018-04-06T01:11:13.069Z,10.40
2018-04-06T01:12:13.250Z,15.00
2018-04-06T01:13:13.431Z,12.00
2018-04-06T01:14:13.613Z,15.30
2018-04-06T01:15:13.794Z,17.50
2018-04-06T01:16:13.975Z,13.70
2018-04-06T01:17:14.155Z,13.60
2018-04-06T01:18:14.335Z,11.70
2018-04-06T01:19:14.515Z,12.60
2018-04-06T01:20:14.695Z,13.00
2018-04-06T01:21:14.876Z,12.80
2018-04-06T01:22:15.057Z,13.60
2018-04-06T01:23:15.238Z,13.40
2018-04-06T01:24:15.418Z,11.20
2018-04-06T01:25:15.599Z,9.10
2018-04-06T01:26:15.780Z,14.80
2018-04-06T01:27:15.961Z,12.60
2018-04-06T01:28:16.140Z,14.10
2018-04-06T01:29:16.320Z,7.80
2018-04-06T01:30:16.504Z,10.90
2018-04-06T01:31:16.684Z,14.00
2018-04-06T01:32:16.864Z,12.60
2018-04-06T01:33:17.043Z,13.40
2018-04-06T01:34:17.224Z,15.30
2018-04-06T01:35:17.408Z,14.90
2018-04-06T01:36:17.586Z,10.90
2018-04-06T01:37:17.772Z,11.80
2018-04-06T01:38:17.947Z,7.70
2018-04-06T01:39:18.128Z,10.30
2018-04-06T01:40:18.307Z,10.60
2018-04-06T01:41:18.487Z,10.80
2018-04-06T01:42:18.669Z,10.20
2018-04-06T01:43:18.849Z,8.40
2018-04-06T01:44:19.027Z,14.10
2018-04-06T01:45:19.207Z,10.70
2018-04-06T01:46:19.390Z,10.10
2018-04-06T01:47:19.569Z,9.60
2018-04-06T01:48:19.748Z,13.70
2018-04-06T01:49:19.933Z,14.40
2018-04-06T01:50:20.107Z,14.50
2018-04-06T01:51:20.289Z,13.40
2018-04-06T01:52:20.468Z,14.80
2018-04-06T01:53:20.649Z,15.10
2018-04-06T01:54:20.828Z,13.70
2018-04-06T01:55:21.008Z,13.60
2018-04-06T01:56:21.186Z,13.00
2018-04-06T01:57:21.371Z,12.30
2018-04-06T01:58:21.548Z,13.60
2018-04-06T01:59:21.727Z,9.10
2018-04-06T02:00:21.909Z,11.00
2018-04-06T02:01:22.089Z,9.50
2018-04-06T02:02:22.269Z,10.40
2018-04-06T02:03:22.447Z,13.40
2018-04-06T02:04:22.627Z,12.90
2018-04-06T02:05:22.809Z,16.30
2018-04-06T02:06:22.987Z,10.10
2018-04-06T02:07:23.167Z,13.00
2018-04-06T02:08:23.344Z,13.30
2018-04-06T02:09:23.567Z,9.30
2018-04-06T02:10:23.705Z,9.30
2018-04-06T02:11:23.892Z,7.70
2018-04-06T02:12:24.074Z,13.10
2018-04-06T02:13:24.252Z,11.70
2018-04-06T02:14:24.433Z,14.30
2018-04-06T02:15:24.614Z,12.80
2018-04-06T02:16:24.793Z,13.70
2018-04-06T02:17:24.970Z,13.70
2018-04-06T02:18:25.152Z,12.40
2018-04-06T02:19:25.329Z,14.40
2018-04-06T02:20:25.517Z,13.20
2018-04-06T02:21:25.695Z,13.80
2018-04-06T02:22:25.876Z,17.90
2018-04-06T02:23:26.055Z,13.00
2018-04-06T02:24:26.267Z,16.00
2018-04-06T02:25:26.415Z,15.10
2018-04-06T02:26:26.592Z,14.60
2018-04-06T02:27:26.775Z,13.40
2018-04-06T02:28:26.952Z,13.40
2018-04-06T02:29:27.132Z,12.00
2018-04-06T02:30:27.315Z,15.60
2018-04-06T02:31:27.491Z,17.50
2018-04-06T02:32:27.671Z,14.60
2018-04-06T02:33:27.848Z,14.10
2018-04-06T02:34:28.041Z,19.10
2018-04-06T02:35:28.212Z,22.80
2018-04-06T02:36:28.389Z,23.10
2018-04-06T02:37:28.571Z,25.10
2018-04-06T02:38:28.755Z,16.70
2018-04-06T02:39:28.927Z,12.70
2018-04-06T02:40:29.124Z,15.60
2018-04-06T02:41:29.304Z,16.90
2018-04-06T02:42:29.483Z,16.90
2018-04-06T02:43:29.663Z,17.00
2018-04-06T02:44:29.842Z,19.70
2018-04-06T02:45:30.021Z,21.90
2018-04-06T02:46:30.200Z,17.60
2018-04-06T02:47:30.383Z,20.30
2018-04-06T02:48:30.560Z,19.90
2018-04-06T02:49:30.744Z,18.80
2018-04-06T02:50:30.923Z,16.90
2018-04-06T02:51:31.101Z,15.80
2018-04-06T02:52:31.280Z,15.60
2018-04-06T02:53:31.460Z,12.30
2018-04-06T02:54:31.639Z,16.20
2018-04-06T02:55:31.820Z,20.60
2018-04-06T02:56:32.000Z,27.90
2018-04-06T02:57:32.178Z,22.80
2018-04-06T02:58:32.359Z,18.70
2018-04-06T02:59:32.538Z,15.30
2018-04-06T03:00:32.720Z,18.80
2018-04-06T03:01:32.899Z,18.50
2018-04-06T03:02:33.078Z,17.00
2018-04-06T03:03:33.257Z,19.90
2018-04-06T03:04:33.434Z,15.50
2018-04-06T03:05:33.614Z,19.90
2018-04-06T03:06:33.794Z,20.40
2018-04-06T03:07:33.972Z,17.20
2018-04-06T03:08:34.153Z,20.20
2018-04-06T03:09:34.331Z,12.10
2018-04-06T03:10:34.512Z,13.70
2018-04-06T03:11:34.691Z,18.10
2018-04-06T03:12:34.870Z,21.80
2018-04-06T03:13:35.051Z,20.50
2018-04-06T03:14:35.230Z,20.40
2018-04-06T03:15:35.408Z,16.50
2018-04-06T03:16:35.586Z,23.10
2018-04-06T03:17:35.768Z,23.40
2018-04-06T03:18:35.948Z,23.80
2018-04-06T03:19:36.126Z,22.60
2018-04-06T03:20:36.307Z,22.50
2018-04-06T03:21:36.485Z,16.20
2018-04-06T03:22:36.663Z,14.40
2018-04-06T03:23:36.844Z,15.70
2018-04-06T03:24:37.023Z,13.30
2018-04-06T03:25:37.201Z,14.70
2018-04-06T03:26:37.379Z,16.00
2018-04-06T03:27:37.559Z,14.90
2018-04-06T03:28:37.738Z,16.80
2018-04-06T03:29:37.920Z,17.20
2018-04-06T03:30:38.098Z,22.20
2018-04-06T03:31:38.283Z,18.30
2018-04-06T03:32:38.457Z,19.60
2018-04-06T03:33:38.634Z,21.00
2018-04-06T03:34:38.812Z,25.20
2018-04-06T03:35:38.996Z,24.40
2018-04-06T03:36:39.172Z,23.40
2018-04-06T03:37:39.352Z,23.90
2018-04-06T03:38:39.535Z,19.50
2018-04-06T03:39:39.710Z,21.30
2018-04-06T03:40:39.889Z,14.80
2018-04-06T03:41:40.069Z,22.00
2018-04-06T03:42:40.251Z,22.00
2018-04-06T03:43:40.426Z,16.50
2018-04-06T03:44:40.607Z,20.70
2018-04-06T03:45:40.788Z,14.50
2018-04-06T03:46:40.968Z,15.40
2018-04-06T03:47:41.147Z,11.90
2018-04-06T03:48:41.328Z,11.10
2018-04-06T03:49:41.508Z,14.40
2018-04-06T03:50:41.687Z,18.20
2018-04-06T03:51:41.867Z,19.40
2018-04-06T03:52:42.047Z,19.20
2018-04-06T03:53:42.226Z,20.70
2018-04-06T03:54:42.404Z,15.60
2018-04-06T03:55:42.585Z,19.60
2018-04-06T03:56:42.767Z,17.90
2018-04-06T03:57:42.945Z,15.10
2018-04-06T03:58:43.123Z,16.20
2018-04-06T03:59:43.309Z,17.20
2018-04-06T04:00:43.483Z,14.70
2018-04-06T04:01:43.662Z,18.70
2018-04-06T04:02:43.844Z,19.40
2018-04-06T04:03:44.025Z,20.30
2018-04-06T04:04:44.203Z,15.80
2018-04-06T04:05:44.381Z,14.40
2018-04-06T04:06:44.560Z,18.30
2018-04-06T04:07:44.740Z,21.20
2018-04-06T04:08:44.920Z,15.80
2018-04-06T04:09:45.101Z,20.30
2018-04-06T04:10:45.280Z,14.90
2018-04-06T04:11:45.458Z,16.20
2018-04-06T04:12:45.640Z,21.10
2018-04-06T04:13:45.818Z,12.60
2018-04-06T04:14:45.999Z,11.90
2018-04-06T04:15:46.177Z,17.10
2018-04-06T04:16:46.362Z,20.80
2018-04-06T04:17:46.537Z,19.60
2018-04-06T04:18:46.716Z,19.80
2018-04-06T04:19:46.898Z,20.40
2018-04-06T04:20:47.075Z,23.40
2018-04-06T04:21:47.256Z,16.80
2018-04-06T04:22:47.436Z,17.60
2018-04-06T04:23:47.616Z,15.40
2018-04-06T04:24:47.795Z,19.00
2018-04-06T04:25:47.980Z,17.90
2018-04-06T04:26:48.154Z,22.70
2018-04-06T04:27:48.333Z,19.10
2018-04-06T04:28:48.513Z,21.00
2018-04-06T04:29:48.694Z,26.90
2018-04-06T04:30:48.876Z,17.60
2018-04-06T04:31:49.053Z,15.60
2018-04-06T04:32:49.234Z,17.60
2018-04-06T04:33:49.412Z,14.90
2018-04-06T04:34:49.591Z,20.20
2018-04-06T04:35:49.771Z,18.30
2018-04-06T04:36:49.955Z,16.40
2018-04-06T04:37:50.130Z,19.00
2018-04-06T04:38:50.311Z,20.50
2018-04-06T04:39:50.490Z,24.40
2018-04-06T04:40:50.672Z,27.50
2018-04-06T04:41:50.850Z,28.00
2018-04-06T04:42:51.031Z,30.40
2018-04-06T04:43:51.213Z,30.50
2018-04-06T04:44:51.391Z,24.80
2018-04-06T04:45:51.568Z,16.70
2018-04-06T04:46:51.754Z,20.70
2018-04-06T04:47:51.928Z,24.80
2018-04-06T04:48:52.109Z,27.00
2018-04-06T04:49:52.301Z,26.00
2018-04-06T04:50:52.469Z,26.60
2018-04-06T04:51:52.649Z,22.30
2018-04-06T04:52:52.830Z,21.40
2018-04-06T04:53:53.008Z,23.90
2018-04-06T04:54:53.188Z,22.00
2018-04-06T04:55:53.367Z,20.20
2018-04-06T04:56:53.537Z,18.00
2018-04-06T04:57:53.745Z,16.20
2018-04-06T04:58:53.910Z,16.70
2018-04-06T04:59:54.090Z,16.30
2018-04-06T05:00:54.267Z,14.50
2018-04-06T05:01:54.447Z,16.00
2018-04-06T05:02:54.627Z,17.60
2018-04-06T05:03:54.812Z,17.50
2018-04-06T05:04:54.990Z,18.50
2018-04-06T05:05:55.168Z,21.50
2018-04-06T05:06:55.347Z,20.80
2018-04-06T05:07:55.525Z,18.00
2018-04-06T05:08:55.705Z,17.30
2018-04-06T05:09:55.884Z,19.90
2018-04-06T05:10:56.065Z,17.90
2018-04-06T05:11:56.244Z,18.20
2018-04-06T05:12:56.425Z,18.50
2018-04-06T05:13:56.604Z,16.00
2018-04-06T05:14:56.784Z,20.20
2018-04-06T05:15:56.969Z,18.70
2018-04-06T05:16:57.145Z,19.30
2018-04-06T05:17:57.326Z,18.80
2018-04-06T05:18:57.505Z,15.30
2018-04-06T05:19:57.685Z,12.70
2018-04-06T05:20:57.866Z,16.50
2018-04-06T05:21:58.047Z,16.60
2018-04-06T05:22:58.228Z,24.20
2018-04-06T05:23:58.406Z,59.40
2018-04-06T05:24:58.586Z,256.10
2018-04-06T05:25:58.784Z,186.50
2018-04-06T05:26:58.965Z,157.80
2018-04-06T05:27:59.145Z,278.10
2018-04-06T05:28:59.325Z,248.30
2018-04-06T05:29:59.505Z,293.10
2018-04-06T05:30:59.688Z,199.10
2018-04-06T05:31:59.872Z,230.00
2018-04-06T05:33:00.049Z,189.70
2018-04-06T05:34:00.230Z,162.30
2018-04-06T05:35:00.409Z,97.10
2018-04-06T05:36:00.589Z,114.00
2018-04-06T05:37:00.771Z,109.40
2018-04-06T05:38:00.953Z,124.40
2018-04-06T05:39:01.132Z,115.00
2018-04-06T05:40:01.314Z,105.30
2018-04-06T05:41:01.496Z,109.00
2018-04-06T05:42:01.675Z,154.80
2018-04-06T05:43:01.858Z,221.30
2018-04-06T05:44:02.039Z,163.60
2018-04-06T05:45:02.221Z,190.50
2018-04-06T05:46:02.402Z,169.40
2018-04-06T05:47:02.585Z,162.00
2018-04-06T05:48:02.764Z,156.00
2018-04-06T05:49:02.946Z,158.00
2018-04-06T05:50:03.127Z,157.20
2018-04-06T05:51:03.320Z,196.60
2018-04-06T05:52:03.490Z,107.60
2018-04-06T05:53:03.690Z,191.00
2018-04-06T05:54:03.853Z,139.70
2018-04-06T05:55:04.037Z,127.60
2018-04-06T05:56:04.222Z,132.20
2018-04-06T05:57:04.404Z,71.80
2018-04-06T05:58:04.584Z,166.10
2018-04-06T05:59:04.771Z,137.90
2018-04-06T06:00:04.949Z,443.50
2018-04-06T06:01:05.136Z,158.10
2018-04-06T06:02:05.317Z,119.00
2018-04-06T06:03:05.498Z,126.80
2018-04-06T06:04:05.682Z,132.00
2018-04-06T06:05:05.864Z,93.40
2018-04-06T06:06:06.047Z,65.70
2018-04-06T06:07:06.230Z,69.00
2018-04-06T06:08:06.412Z,169.30
2018-04-06T06:09:06.595Z,295.30
2018-04-06T06:10:06.778Z,209.10
2018-04-06T06:11:06.962Z,159.40
2018-04-06T06:12:07.144Z,267.60
2018-04-06T06:13:07.328Z,158.40
2018-04-06T06:14:07.511Z,319.10
2018-04-06T06:15:07.694Z,356.80
2018-04-06T06:16:07.877Z,431.20
2018-04-06T06:17:08.061Z,309.20
2018-04-06T06:18:08.244Z,381.40
2018-04-06T06:19:08.427Z,486.70
2018-04-06T06:20:08.611Z,482.90
2018-04-06T06:21:08.797Z,466.40
2018-04-06T06:22:08.980Z,383.30
2018-04-06T06:23:09.162Z,209.70
2018-04-06T06:24:09.347Z,398.10
2018-04-06T06:25:09.531Z,299.70
2018-04-06T06:26:09.716Z,297.80
2018-04-06T06:27:09.901Z,50.10
2018-04-06T06:28:10.085Z,245.30
2018-04-06T06:29:10.354Z,254.10
2018-04-06T06:30:10.459Z,273.90
2018-04-06T06:31:10.650Z,117.10
2018-04-06T06:32:10.831Z,89.30
2018-04-06T06:33:11.019Z,75.70
2018-04-06T06:34:11.202Z,40.10
2018-04-06T06:35:11.386Z,21.60
2018-04-06T06:36:11.574Z,19.10
2018-04-06T06:37:11.761Z,30.20
2018-04-06T06:38:11.945Z,15.00
2018-04-06T06:39:12.133Z,14.00
2018-04-06T06:40:12.321Z,11.00
2018-04-06T06:41:12.508Z,12.00
2018-04-06T06:42:12.696Z,10.30
2018-04-06T06:43:12.886Z,9.20
2018-04-06T06:44:13.088Z,9.60
2018-04-06T06:45:13.264Z,9.10
2018-04-06T06:46:13.454Z,8.70
2018-04-06T06:47:13.645Z,9.10
2018-04-06T06:48:13.849Z,8.40
2018-04-06T06:49:14.031Z,9.60
2018-04-06T06:50:14.217Z,8.70
2018-04-06T06:51:14.408Z,7.00
2018-04-06T06:52:14.597Z,6.40
2018-04-06T06:53:14.792Z,7.70
2018-04-06T06:54:14.983Z,8.60
2018-04-06T06:55:15.177Z,6.80
2018-04-06T06:56:15.370Z,7.70
2018-04-06T06:57:15.563Z,9.50
2018-04-06T06:58:15.758Z,9.20
2018-04-06T06:59:15.950Z,8.20
2018-04-06T07:00:16.142Z,9.10
2018-04-06T07:01:16.336Z,10.40
2018-04-06T07:02:16.530Z,8.30
2018-04-06T07:03:16.723Z,8.00
2018-04-06T07:04:16.917Z,8.80
2018-04-06T07:05:17.111Z,8.90
2018-04-06T07:06:17.304Z,8.20
2018-04-06T07:07:17.499Z,8.10
2018-04-06T07:08:17.695Z,7.50
2018-04-06T07:09:17.891Z,7.60
2018-04-06T07:10:18.084Z,7.40
2018-04-06T07:11:18.281Z,7.70
2018-04-06T07:12:18.482Z,6.60
2018-04-06T07:13:18.675Z,7.40
2018-04-06T07:14:18.869Z,8.00
2018-04-06T07:15:19.067Z,6.20
2018-04-06T07:16:19.262Z,7.10
2018-04-06T07:17:19.460Z,6.20
2018-04-06T07:18:19.660Z,7.00
2018-04-06T07:19:19.858Z,6.60
2018-04-06T07:20:20.056Z,8.10
2018-04-06T07:21:20.254Z,6.20
2018-04-06T07:22:20.452Z,6.40
2018-04-06T07:23:20.651Z,7.10
2018-04-06T07:24:20.849Z,5.80
2018-04-06T07:25:21.048Z,6.90
2018-04-06T07:26:21.245Z,4.90
2018-04-06T07:27:21.442Z,7.40
2018-04-06T07:28:21.643Z,8.20
2018-04-06T07:29:21.843Z,7.60
2018-04-06T07:30:22.043Z,7.50
2018-04-06T07:31:22.243Z,7.00
2018-04-06T07:32:22.444Z,6.40
2018-04-06T07:33:22.645Z,7.30
2018-04-06T07:34:22.842Z,7.50
2018-04-06T07:35:23.045Z,7.30
2018-04-06T07:36:23.240Z,7.20
2018-04-06T07:37:23.441Z,7.90
2018-04-06T07:38:23.639Z,7.40
2018-04-06T07:39:23.844Z,7.20
2018-04-06T07:40:24.039Z,6.20
2018-04-06T07:41:24.239Z,7.20
2018-04-06T07:42:24.438Z,6.40
2018-04-06T07:43:24.638Z,8.60
2018-04-06T07:44:24.850Z,7.20
2018-04-06T07:45:25.039Z,7.10
2018-04-06T07:46:25.240Z,6.50
2018-04-06T07:47:25.439Z,6.90
2018-04-06T07:48:25.640Z,7.80
2018-04-06T07:49:25.839Z,7.80
2018-04-06T07:50:26.040Z,6.30
2018-04-06T07:51:26.246Z,6.40
2018-04-06T07:52:26.440Z,5.80
2018-04-06T07:53:26.641Z,7.00
2018-04-06T07:54:26.846Z,6.90
2018-04-06T07:55:27.041Z,7.10
2018-04-06T07:56:27.241Z,8.60
2018-04-06T07:57:27.441Z,8.00
2018-04-06T07:58:27.640Z,6.40
2018-04-06T07:59:27.841Z,7.60
2018-04-06T08:00:28.045Z,7.90
2018-04-06T08:01:28.243Z,9.70
2018-04-06T08:02:28.441Z,6.00
2018-04-06T08:03:28.636Z,7.00
2018-04-06T08:04:28.837Z,7.20
2018-04-06T08:05:29.035Z,7.70
2018-04-06T08:06:29.233Z,8.20
2018-04-06T08:07:29.434Z,7.70
2018-04-06T08:08:29.646Z,6.90
2018-04-06T08:09:29.835Z,6.10
2018-04-06T08:10:30.034Z,8.30
2018-04-06T08:11:30.233Z,6.90
2018-04-06T08:12:30.438Z,6.60
2018-04-06T08:13:30.663Z,7.40
2018-04-06T08:14:30.844Z,8.10
2018-04-06T08:15:31.034Z,8.10
2018-04-06T08:16:31.238Z,6.80
2018-04-06T08:17:31.434Z,8.00
2018-04-06T08:18:31.635Z,6.40
2018-04-06T08:19:31.832Z,8.60
2018-04-06T08:20:32.034Z,7.10
2018-04-06T08:21:32.232Z,7.30
2018-04-06T08:22:32.430Z,7.50
2018-04-06T08:23:32.632Z,9.10
2018-04-06T08:24:32.832Z,7.60
2018-04-06T08:25:33.042Z,6.60
2018-04-06T08:26:33.231Z,6.30
2018-04-06T08:27:33.431Z,8.50
2018-04-06T08:28:33.629Z,7.30
2018-04-06T08:29:33.829Z,8.30
2018-04-06T08:30:34.027Z,10.30
2018-04-06T08:31:34.226Z,9.30
2018-04-06T08:32:34.425Z,7.80
2018-04-06T08:33:34.623Z,7.50
2018-04-06T08:34:34.825Z,9.10
2018-04-06T08:35:35.027Z,7.10
2018-04-06T08:36:35.224Z,6.90
2018-04-06T08:37:35.419Z,5.60
2018-04-06T08:38:35.622Z,7.10
2018-04-06T08:39:35.819Z,6.80
2018-04-06T08:40:36.016Z,6.90
2018-04-06T08:41:36.213Z,5.70
2018-04-06T08:42:36.411Z,8.30
2018-04-06T08:43:36.612Z,6.10
2018-04-06T08:44:36.811Z,7.00
2018-04-06T08:45:37.013Z,7.00
2018-04-06T08:46:37.208Z,6.50
2018-04-06T08:47:37.405Z,8.40
2018-04-06T08:48:37.602Z,7.30
2018-04-06T08:49:37.805Z,7.30
2018-04-06T08:50:37.998Z,7.50
2018-04-06T08:51:38.200Z,8.30
2018-04-06T08:52:38.396Z,8.20
2018-04-06T08:53:38.591Z,6.00
2018-04-06T08:54:38.843Z,7.00
2018-04-06T08:55:38.987Z,8.20
2018-04-06T08:56:39.183Z,6.80
2018-04-06T08:57:39.382Z,7.10
2018-04-06T08:58:39.578Z,7.20
2018-04-06T08:59:39.776Z,6.70
2018-04-06T09:00:39.973Z,9.20
2018-04-06T09:01:40.167Z,8.10
2018-04-06T09:02:40.365Z,10.20
2018-04-06T09:03:40.561Z,10.50
2018-04-06T09:04:40.773Z,6.70
2018-04-06T09:05:40.955Z,6.80
2018-04-06T09:06:41.151Z,8.60
2018-04-06T09:07:41.346Z,7.40
2018-04-06T09:08:41.540Z,6.40
2018-04-06T09:09:41.734Z,5.90
2018-04-06T09:10:41.930Z,6.40
2018-04-06T09:11:42.128Z,8.00
2018-04-06T09:12:42.402Z,7.70
2018-04-06T09:13:42.516Z,8.10
2018-04-06T09:14:42.726Z,5.80
2018-04-06T09:15:42.907Z,4.50
2018-04-06T09:16:43.101Z,4.60
2018-04-06T09:17:43.297Z,3.90
2018-04-06T09:18:43.492Z,4.00
2018-04-06T09:19:43.696Z,3.60
2018-04-06T09:20:43.882Z,4.20
2018-04-06T09:21:44.075Z,3.80
2018-04-06T09:22:44.275Z,4.50
2018-04-06T09:23:44.469Z,4.50
2018-04-06T09:24:44.664Z,5.40
2018-04-06T09:25:44.861Z,4.80
2018-04-06T09:26:45.053Z,4.60
2018-04-06T09:27:45.247Z,4.60
2018-04-06T09:28:45.440Z,5.30
2018-04-06T09:29:45.632Z,4.30
2018-04-06T09:30:45.825Z,4.20
2018-04-06T09:31:46.018Z,5.00
2018-04-06T09:32:46.212Z,4.40
2018-04-06T09:33:46.406Z,3.80
2018-04-06T09:34:46.608Z,4.20
2018-04-06T09:35:46.795Z,4.50
2018-04-06T09:36:46.987Z,4.60
2018-04-06T09:37:47.180Z,5.20
2018-04-06T09:38:47.373Z,4.50
2018-04-06T09:39:47.566Z,4.20
2018-04-06T09:40:47.759Z,4.90
2018-04-06T09:41:47.954Z,3.50
2018-04-06T09:42:48.146Z,3.30
2018-04-06T09:43:48.339Z,2.90
2018-04-06T09:44:48.531Z,3.80
2018-04-06T09:45:48.723Z,3.40
2018-04-06T09:46:48.914Z,3.00
2018-04-06T09:47:49.107Z,2.70
2018-04-06T09:48:49.299Z,4.20
2018-04-06T09:49:49.492Z,3.80
2018-04-06T09:50:49.687Z,3.30
2018-04-06T09:51:49.876Z,3.60
2018-04-06T09:52:50.070Z,4.10
2018-04-06T09:53:50.302Z,4.20
2018-04-06T09:54:50.452Z,3.90
2018-04-06T09:55:50.645Z,2.90
2018-04-06T09:56:50.835Z,2.90
2018-04-06T09:57:51.025Z,2.80
2018-04-06T09:58:51.216Z,2.80
2018-04-06T09:59:51.407Z,3.00
2018-04-06T10:00:51.599Z,3.20
2018-04-06T10:01:51.794Z,2.60
2018-04-06T10:02:51.983Z,3.20
2018-04-06T10:03:52.180Z,3.60
2018-04-06T10:04:52.362Z,3.00
2018-04-06T10:05:52.552Z,3.40
2018-04-06T10:06:52.744Z,2.60
2018-04-06T10:07:52.934Z,3.80
2018-04-06T10:08:53.125Z,3.10
2018-04-06T10:09:53.316Z,2.70
2018-04-06T10:10:53.558Z,3.30
2018-04-06T10:11:53.703Z,2.90
2018-04-06T10:12:53.871Z,3.40
2018-04-06T10:13:54.064Z,3.10
2018-04-06T10:14:54.254Z,4.10
2018-04-06T10:15:54.444Z,5.00
2018-04-06T10:16:54.636Z,4.00
2018-04-06T10:17:54.824Z,3.90
2018-04-06T10:18:55.018Z,4.00
2018-04-06T10:19:55.202Z,3.40
2018-04-06T10:20:55.393Z,2.80
2018-04-06T10:21:55.586Z,3.80
2018-04-06T10:22:55.776Z,3.90
2018-04-06T10:23:55.962Z,3.60
2018-04-06T10:24:56.154Z,3.70
2018-04-06T10:25:56.341Z,3.50
2018-04-06T10:26:56.530Z,3.80
2018-04-06T10:27:56.720Z,2.90
2018-04-06T10:28:56.911Z,2.90
2018-04-06T10:29:57.103Z,3.70
2018-04-06T10:30:57.302Z,3.40
2018-04-06T10:31:57.483Z,3.40
2018-04-06T10:32:57.673Z,5.40
2018-04-06T10:33:57.863Z,5.50
2018-04-06T10:34:58.057Z,6.30
2018-04-06T10:35:58.241Z,5.80
2018-04-06T10:36:58.433Z,9.40
2018-04-06T10:37:58.620Z,6.10
2018-04-06T10:38:58.811Z,5.50
2018-04-06T10:39:59.006Z,4.20
2018-04-06T10:40:59.188Z,2.90
2018-04-06T10:41:59.378Z,3.60
2018-04-06T10:42:59.566Z,3.50
2018-04-06T10:43:59.757Z,3.40
2018-04-06T10:44:59.945Z,2.40
2018-04-06T10:46:00.134Z,2.20
2018-04-06T10:47:00.323Z,3.50
2018-04-06T10:48:00.515Z,2.10
2018-04-06T10:49:00.704Z,2.60
2018-04-06T10:50:00.892Z,1.60
2018-04-06T10:51:01.082Z,2.60
2018-04-06T10:52:01.271Z,2.10
2018-04-06T10:53:01.460Z,1.40
2018-04-06T10:54:01.648Z,1.80
2018-04-06T10:55:01.839Z,2.20
2018-04-06T10:56:02.028Z,1.50
2018-04-06T10:57:02.217Z,2.00
2018-04-06T10:58:02.406Z,1.70
2018-04-06T10:59:02.596Z,2.60
2018-04-06T11:00:02.785Z,1.60
2018-04-06T11:01:02.980Z,1.40
2018-04-06T11:02:03.166Z,1.40
2018-04-06T11:03:03.433Z,1.80
2018-04-06T11:04:03.499Z,2.00
2018-04-06T11:05:03.689Z,1.30
2018-04-06T11:06:03.875Z,3.60
2018-04-06T11:07:04.065Z,2.10
2018-04-06T11:08:04.253Z,2.70
2018-04-06T11:09:04.440Z,2.20
2018-04-06T11:10:04.642Z,2.40
2018-04-06T11:11:04.822Z,2.40
2018-04-06T11:12:05.013Z,1.90
2018-04-06T11:13:05.200Z,2.80
2018-04-06T11:14:05.390Z,2.20
2018-04-06T11:15:05.579Z,2.40
2018-04-06T11:16:05.767Z,1.90
2018-04-06T11:17:05.958Z,2.10
2018-04-06T11:18:06.147Z,1.40
2018-04-06T11:19:06.338Z,1.70
2018-04-06T11:20:06.527Z,1.90
2018-04-06T11:21:06.715Z,2.30
2018-04-06T11:22:06.904Z,1.60
2018-04-06T11:23:07.110Z,1.70
2018-04-06T11:24:07.286Z,1.30
2018-04-06T11:25:07.473Z,2.40
2018-04-06T11:26:07.664Z,1.70
2018-04-06T11:27:07.853Z,2.40
2018-04-06T11:28:08.039Z,2.30
2018-04-06T11:29:08.228Z,2.00
2018-04-06T11:30:08.416Z,1.60
2018-04-06T11:31:08.606Z,1.70
2018-04-06T11:32:08.839Z,2.70
2018-04-06T11:33:08.983Z,1.10
2018-04-06T11:34:09.209Z,1.20
2018-04-06T11:35:09.380Z,2.90
2018-04-06T11:36:09.570Z,1.20
2018-04-06T11:37:09.759Z,0.90
2018-04-06T11:38:09.951Z,2.60
2018-04-06T11:39:10.136Z,1.00
2018-04-06T11:40:10.325Z,1.90
2018-04-06T11:41:10.514Z,2.40
2018-04-06T11:42:10.703Z,2.10
2018-04-06T11:43:10.890Z,1.80
2018-04-06T11:44:11.140Z,1.50
2018-04-06T11:45:11.269Z,2.30
2018-04-06T11:46:11.456Z,1.40
2018-04-06T11:47:11.645Z,1.20
2018-04-06T11:48:11.833Z,1.80
2018-04-06T11:49:12.022Z,2.80
2018-04-06T11:50:12.210Z,2.00
2018-04-06T11:51:12.398Z,1.70
2018-04-06T11:52:12.588Z,1.90
2018-04-06T11:53:12.777Z,2.00
2018-04-06T11:54:13.010Z,2.30
2018-04-06T11:55:13.153Z,2.20
2018-04-06T11:56:13.341Z,2.10
2018-04-06T11:57:13.529Z,1.40
2018-04-06T11:58:13.718Z,1.90
2018-04-06T11:59:13.906Z,1.50
2018-04-06T12:00:14.098Z,2.20
2018-04-06T12:01:14.283Z,1.40
2018-04-06T12:02:14.470Z,2.10
2018-04-06T12:03:14.658Z,2.10
2018-04-06T12:04:14.845Z,1.50
2018-04-06T12:05:15.034Z,2.40
2018-04-06T12:06:15.227Z,1.60
2018-04-06T12:07:15.408Z,1.80
2018-04-06T12:08:15.597Z,2.40
2018-04-06T12:09:15.788Z,2.00
2018-04-06T12:10:15.973Z,2.20
2018-04-06T12:11:16.164Z,1.90
2018-04-06T12:12:16.353Z,2.10
2018-04-06T12:13:16.542Z,1.80
2018-04-06T12:14:16.728Z,3.30
2018-04-06T12:15:16.919Z,2.10
2018-04-06T12:16:17.108Z,2.10
2018-04-06T12:17:17.293Z,2.10
2018-04-06T12:18:17.484Z,2.80
2018-04-06T12:19:17.672Z,2.40
2018-04-06T12:20:17.861Z,2.60
2018-04-06T12:21:18.047Z,2.30
2018-04-06T12:22:18.235Z,1.90
2018-04-06T12:23:18.424Z,2.00
2018-04-06T12:24:18.611Z,1.50
2018-04-06T12:25:18.800Z,1.70
2018-04-06T12:26:18.989Z,2.70
2018-04-06T12:27:19.177Z,3.00
2018-04-06T12:28:19.365Z,3.00
2018-04-06T12:29:19.553Z,2.20
2018-04-06T12:30:19.747Z,2.40
2018-04-06T12:31:19.929Z,2.20
2018-04-06T12:32:20.119Z,2.80
2018-04-06T12:33:20.305Z,3.60
2018-04-06T12:34:20.496Z,3.60
2018-04-06T12:35:20.687Z,2.30
2018-04-06T12:36:20.870Z,2.40
2018-04-06T12:37:21.057Z,2.00
2018-04-06T12:38:21.244Z,3.20
2018-04-06T12:39:21.432Z,2.10
2018-04-06T12:40:21.623Z,2.40
2018-04-06T12:41:21.812Z,2.20
2018-04-06T12:42:21.998Z,2.00
2018-04-06T12:43:22.186Z,2.70
2018-04-06T12:44:22.378Z,2.60
2018-04-06T12:45:22.564Z,3.60
2018-04-06T12:46:22.751Z,3.00
2018-04-06T12:47:22.940Z,1.90
2018-04-06T12:48:23.127Z,3.00
2018-04-06T12:49:23.316Z,2.70
2018-04-06T12:50:23.507Z,2.30
2018-04-06T12:51:23.690Z,2.50
2018-04-06T12:52:23.877Z,2.60
2018-04-06T12:53:24.066Z,3.70
2018-04-06T12:54:24.252Z,4.00
2018-04-06T12:55:24.441Z,3.80
2018-04-06T12:56:24.632Z,2.40
2018-04-06T12:57:24.817Z,1.80
2018-04-06T12:58:25.009Z,3.30
2018-04-06T12:59:25.195Z,2.20
2018-04-06T13:00:25.383Z,2.00
2018-04-06T13:01:25.572Z,3.10
2018-04-06T13:02:25.761Z,2.70
2018-04-06T13:03:25.950Z,5.80
2018-04-06T13:04:26.139Z,3.20
2018-04-06T13:05:26.330Z,3.00
2018-04-06T13:06:26.519Z,2.10